Time;durP1;ratioP1;P1;durP2;ratioP2;P2;SDS_P1;SDS_P2;PMS_P1;PMS_P2;Temp;Humidity;BMP_temperature;BMP_pressure;BME280_temperature;BME280_humidity;BME280_pressure;Samples;Min_cycle;Max_cycle;Signal;HPM_P1;HPM_P2
2022/08/23 00:01:26;;;;;;;5.37;4.50;;;17.30;99.90;;;;;;5012725;28;20198;-34
2022/08/23 00:03:55;;;;;;;6.00;5.00;;;17.20;99.90;;;;;;5029218;28;20181;-34
2022/08/23 00:06:22;;;;;;;7.53;4.93;;;17.10;99.90;;;;;;5012977;28;20205;-34
2022/08/23 00:08:49;;;;;;;5.37;4.80;;;17.00;99.90;;;;;;5012661;28;20186;-34
2022/08/23 00:11:33;;;;;;;7.53;5.60;;;17.00;99.90;;;;;;5029462;28;20194;-34
2022/08/23 00:14:03;;;;;;;5.17;4.57;;;16.90;99.90;;;;;;5029502;28;20218;-34
2022/08/23 00:16:29;;;;;;;6.53;4.93;;;16.80;99.90;;;;;;5029254;28;20179;-35
2022/08/23 00:18:55;;;;;;;5.30;4.80;;;16.80;99.90;;;;;;5029138;28;20181;-34
2022/08/23 00:21:22;;;;;;;5.63;5.10;;;16.70;99.90;;;;;;5029377;28;20214;-35
2022/08/23 00:23:48;;;;;;;6.37;4.73;;;16.70;99.90;;;;;;5012798;28;20198;-34
2022/08/23 00:26:13;;;;;;;6.10;5.03;;;16.70;99.90;;;;;;5012541;28;20179;-34
2022/08/23 00:28:40;;;;;;;6.47;4.97;;;16.70;99.90;;;;;;5028908;28;20206;-35
2022/08/23 00:31:06;;;;;;;5.73;4.87;;;16.60;99.90;;;;;;5012545;28;20209;-34
2022/08/23 00:33:32;;;;;;;7.03;5.20;;;16.50;99.90;;;;;;5029341;28;20177;-35
2022/08/23 00:35:57;;;;;;;5.33;4.83;;;16.40;99.90;;;;;;5012757;28;20175;-35
2022/08/23 00:38:24;;;;;;;6.67;5.07;;;16.30;99.90;;;;;;5028975;28;20202;-36
2022/08/23 00:40:51;;;;;;;5.40;4.53;;;16.40;99.90;;;;;;5015882;28;20203;-35
2022/08/23 00:49:15;;;;;;;5.83;5.07;;;16.40;99.90;;;;;;5032652;28;20260;-35
2022/08/23 00:52:02;;;;;;;5.60;5.17;;;16.40;99.90;;;;;;5032605;28;20194;-34
2022/08/23 00:54:30;;;;;;;5.60;4.97;;;16.50;99.90;;;;;;5016347;28;20186;-34
2022/08/23 00:57:00;;;;;;;7.47;5.07;;;16.40;99.90;;;;;;5032484;28;20210;-34
2022/08/23 00:59:26;;;;;;;5.60;5.10;;;16.40;99.90;;;;;;5032443;28;20265;-34
2022/08/23 01:01:52;;;;;;;5.60;4.63;;;16.40;99.90;;;;;;5016387;28;20293;-34
2022/08/23 01:04:18;;;;;;;5.10;4.60;;;16.30;99.90;;;;;;5015970;28;20178;-34
2022/08/23 01:06:54;;;;;;;5.77;4.70;;;16.20;99.90;;;;;;5015971;28;20206;-34
2022/08/23 01:09:21;;;;;;;5.30;4.80;;;16.10;99.90;;;;;;5016118;28;20182;-34
2022/08/23 01:12:07;;;;;;;6.40;5.33;;;16.00;99.90;;;;;;5032354;28;20199;-34
2022/08/23 01:14:57;;;;;;;6.23;5.43;;;16.00;99.90;;;;;;5032443;28;20174;-34
2022/08/23 01:17:29;;;;;;;8.17;5.30;;;15.90;99.90;;;;;;5032085;28;20583;-34
2022/08/23 01:20:16;;;;;;;6.17;5.20;;;15.90;99.90;;;;;;5032504;28;20185;-34
2022/08/23 01:23:06;;;;;;;6.50;5.40;;;15.90;99.90;;;;;;5015994;28;20186;-34
2022/08/23 01:25:33;;;;;;;9.10;5.30;;;15.90;99.90;;;;;;5016007;28;20236;-34
2022/08/23 01:27:59;;;;;;;6.00;4.20;;;16.00;99.90;;;;;;5015271;28;20214;-34
2022/08/23 01:30:30;;;;;;;8.43;5.37;;;16.00;99.90;;;;;;5015689;28;20198;-34
2022/08/23 01:32:58;;;;;;;7.17;5.03;;;15.90;99.90;;;;;;5015290;28;20308;-36
2022/08/23 01:35:34;;;;;;;5.80;5.23;;;16.00;99.90;;;;;;5015721;28;20182;-34
2022/08/23 01:38:00;;;;;;;5.93;5.13;;;15.90;99.90;;;;;;5015265;28;20182;-34
2022/08/23 01:40:26;;;;;;;5.90;4.73;;;15.90;99.90;;;;;;5015432;28;20205;-34
2022/08/23 01:42:52;;;;;;;5.60;5.10;;;16.00;99.90;;;;;;5015391;28;20683;-34
2022/08/23 01:45:18;;;;;;;5.50;4.97;;;16.00;99.90;;;;;;5015069;28;20179;-34
2022/08/23 01:47:44;;;;;;;6.37;5.10;;;16.00;99.90;;;;;;5015017;28;20226;-34
2022/08/23 01:50:12;;;;;;;7.67;5.63;;;15.90;99.90;;;;;;5031169;28;20210;-34
2022/08/23 01:52:39;;;;;;;6.53;5.20;;;15.90;99.90;;;;;;5014726;28;20180;-34
2022/08/23 01:55:05;;;;;;;6.03;5.43;;;15.80;99.90;;;;;;5031765;28;20183;-34
2022/08/23 01:57:32;;;;;;;5.73;5.20;;;15.70;99.90;;;;;;5031329;28;20266;-35
2022/08/23 02:00:01;;;;;;;6.20;5.03;;;15.70;99.90;;;;;;5015116;28;20646;-33
2022/08/23 02:02:28;;;;;;;5.80;5.20;;;15.60;99.90;;;;;;5015157;28;20193;-33
2022/08/23 02:04:53;;;;;;;7.93;5.60;;;15.60;99.90;;;;;;5031507;28;20257;-33
2022/08/23 02:07:19;;;;;;;7.90;6.00;;;15.60;99.90;;;;;;5014861;28;20203;-32
2022/08/23 02:09:48;;;;;;;6.07;5.47;;;15.50;99.90;;;;;;5031438;28;20182;-32
2022/08/23 02:12:15;;;;;;;6.83;5.70;;;15.50;99.90;;;;;;5014878;28;20205;-32
2022/08/23 02:14:41;;;;;;;6.90;6.20;;;15.50;99.90;;;;;;5014683;28;20178;-34
2022/08/23 02:17:17;;;;;;;6.23;5.63;;;15.50;99.90;;;;;;5015703;28;20189;-33
2022/08/23 02:19:43;;;;;;;7.27;5.80;;;15.50;99.90;;;;;;5031317;28;20181;-33
2022/08/23 02:22:10;;;;;;;7.63;5.27;;;15.60;99.90;;;;;;5015187;28;20225;-34
2022/08/23 02:24:44;;;;;;;6.47;5.80;;;15.60;99.90;;;;;;5014594;28;20186;-33
2022/08/23 02:27:13;;;;;;;5.97;5.30;;;15.60;99.90;;;;;;5030458;28;20216;-34
2022/08/23 02:29:40;;;;;;;5.87;5.37;;;15.60;99.90;;;;;;5014362;28;20209;-33
2022/08/23 02:32:09;;;;;;;5.63;5.03;;;15.60;99.90;;;;;;5014731;28;20201;-32
2022/08/23 02:34:36;;;;;;;6.30;4.63;;;15.50;99.90;;;;;;5014617;28;20179;-34
2022/08/23 02:37:02;;;;;;;6.03;5.50;;;15.40;99.90;;;;;;5014200;28;20193;-34
2022/08/23 02:39:29;;;;;;;6.63;5.23;;;15.40;99.90;;;;;;5030701;28;20213;-32
2022/08/23 02:41:55;;;;;;;6.73;5.40;;;15.30;99.90;;;;;;5014380;28;20274;-34
2022/08/23 02:44:21;;;;;;;5.13;4.70;;;15.20;99.90;;;;;;5014488;28;20182;-33
2022/08/23 02:46:47;;;;;;;8.00;5.50;;;15.10;99.90;;;;;;5014236;28;20212;-32
2022/08/23 02:49:13;;;;;;;6.00;5.50;;;15.10;99.90;;;;;;5014070;28;20179;-33
2022/08/23 02:51:39;;;;;;;5.23;4.73;;;15.10;99.90;;;;;;5030520;28;20198;-32
2022/08/23 02:54:05;;;;;;;5.70;5.13;;;15.10;99.90;;;;;;5013790;28;20210;-32
2022/08/23 02:56:32;;;;;;;8.60;5.70;;;15.00;99.90;;;;;;5030193;28;20178;-32
2022/08/23 02:58:58;;;;;;;5.77;4.73;;;15.00;99.90;;;;;;5013860;28;20267;-32
2022/08/23 03:01:31;;;;;;;6.27;5.40;;;15.00;99.90;;;;;;5030007;28;20202;-32
2022/08/23 03:04:09;;;;;;;7.13;5.57;;;15.00;99.90;;;;;;5030405;28;20205;-33
2022/08/23 03:06:35;;;;;;;7.00;5.20;;;15.00;99.90;;;;;;5013399;28;20183;-32
2022/08/23 03:09:03;;;;;;;6.60;5.70;;;15.00;99.90;;;;;;5030087;28;20175;-32
2022/08/23 03:11:29;;;;;;;6.37;5.47;;;15.00;99.90;;;;;;5030067;28;20230;-34
2022/08/23 03:13:55;;;;;;;8.03;5.63;;;15.00;99.90;;;;;;5013824;28;20220;-32
2022/08/23 03:16:22;;;;;;;7.10;5.60;;;14.90;99.90;;;;;;5013815;28;20269;-33
2022/08/23 03:18:48;;;;;;;6.47;5.00;;;14.90;99.90;;;;;;5013439;28;20175;-32
2022/08/23 03:21:14;;;;;;;6.00;5.40;;;14.80;99.90;;;;;;5013211;28;20206;-32
2022/08/23 03:23:41;;;;;;;7.17;6.03;;;14.70;99.90;;;;;;5013430;28;20178;-33
2022/08/23 03:26:09;;;;;;;8.03;6.17;;;14.70;99.90;;;;;;5013405;28;20281;-32
2022/08/23 03:28:37;;;;;;;7.40;5.40;;;14.60;99.90;;;;;;5029640;28;20242;-34
2022/08/23 03:31:05;;;;;;;7.00;5.60;;;14.50;99.90;;;;;;5013479;28;20213;-32
2022/08/23 03:33:37;;;;;;;6.00;5.40;;;14.40;99.90;;;;;;5029691;28;20402;-34
2022/08/23 03:36:06;;;;;;;6.47;5.60;;;14.40;99.90;;;;;;5013436;28;20201;-33
2022/08/23 03:38:33;;;;;;;7.07;5.70;;;14.40;99.90;;;;;;5029648;28;20177;-34
2022/08/23 03:41:00;;;;;;;6.77;6.07;;;14.40;99.90;;;;;;5013241;28;20209;-32
2022/08/23 03:43:26;;;;;;;6.37;5.60;;;14.40;99.90;;;;;;5013324;28;20236;-32
2022/08/23 03:45:52;;;;;;;6.83;5.87;;;14.40;99.90;;;;;;5030062;28;20186;-32
2022/08/23 03:48:19;;;;;;;7.53;5.67;;;14.50;99.90;;;;;;5012663;28;20205;-33
2022/08/23 03:50:55;;;;;;;6.47;5.87;;;14.50;99.90;;;;;;5029414;28;20198;-34
2022/08/23 03:53:22;;;;;;;9.40;6.23;;;14.50;99.90;;;;;;5013357;28;20261;-32
2022/08/23 03:55:52;;;;;;;7.90;6.40;;;14.50;99.90;;;;;;5029573;28;20212;-34
2022/08/23 03:58:19;;;;;;;8.63;6.60;;;14.50;99.90;;;;;;5013013;28;20178;-35
2022/08/23 04:00:45;;;;;;;6.50;5.90;;;14.50;99.90;;;;;;5011940;28;20248;-34
2022/08/23 04:03:11;;;;;;;8.97;6.93;;;14.50;99.90;;;;;;5012912;28;20189;-34
2022/08/23 04:05:53;;;;;;;7.43;6.67;;;14.40;99.90;;;;;;5015375;28;20194;-35
2022/08/23 04:08:19;;;;;;;6.80;6.20;;;14.30;99.90;;;;;;5028862;28;20220;-34
2022/08/23 04:10:45;;;;;;;8.33;6.20;;;14.20;99.90;;;;;;5013030;28;20198;-34
2022/08/23 04:13:11;;;;;;;6.73;6.13;;;14.20;99.90;;;;;;5030086;28;20269;-34
2022/08/23 04:15:37;;;;;;;8.40;5.93;;;14.30;99.90;;;;;;5033442;28;20718;-34
2022/08/23 04:18:04;;;;;;;6.33;5.70;;;14.30;99.90;;;;;;5016896;28;20667;-34
2022/08/23 04:20:30;;;;;;;8.00;5.97;;;14.30;99.90;;;;;;5016801;28;20217;-34
2022/08/23 04:23:02;;;;;;;7.63;6.00;;;14.30;99.90;;;;;;5017808;28;20188;-34
2022/08/23 04:25:32;;;;;;;6.23;5.63;;;14.30;99.90;;;;;;5017431;28;20182;-34
2022/08/23 04:27:59;;;;;;;6.50;5.63;;;14.50;99.90;;;;;;5016206;28;20212;-34
2022/08/23 04:30:26;;;;;;;6.90;6.20;;;14.50;99.90;;;;;;5033102;28;20194;-34
2022/08/23 04:32:52;;;;;;;6.07;5.47;;;14.50;99.90;;;;;;5016766;28;20188;-34
2022/08/23 04:35:18;;;;;;;9.13;5.77;;;14.40;99.90;;;;;;5016877;28;20182;-34
2022/08/23 04:37:45;;;;;;;7.00;6.30;;;14.20;99.90;;;;;;5034251;28;20178;-34
2022/08/23 04:42:56;;;;;;;8.87;5.97;;;14.30;99.90;;;;;;5032963;28;20194;-34
2022/08/23 04:45:23;;;;;;;8.77;5.87;;;14.30;99.90;;;;;;5016619;28;20554;-34
2022/08/23 04:47:51;;;;;;;6.83;6.07;;;14.30;99.90;;;;;;5016492;28;20272;-34
2022/08/23 04:50:18;;;;;;;6.97;6.27;;;14.20;99.90;;;;;;5016386;28;20213;-34
2022/08/23 04:53:07;;;;;;;6.40;5.47;;;14.20;99.90;;;;;;5032662;28;20193;-34
2022/08/23 04:55:39;;;;;;;6.50;5.80;;;14.20;99.90;;;;;;5017118;28;20174;-34
2022/08/23 04:58:06;;;;;;;5.70;5.20;;;14.20;99.90;;;;;;5016281;28;20229;-34
2022/08/23 05:00:38;;;;;;;6.67;6.07;;;14.10;99.90;;;;;;5016779;28;20208;-34
2022/08/23 05:03:05;;;;;;;6.60;5.80;;;14.20;99.90;;;;;;5032765;28;20225;-32
2022/08/23 05:05:32;;;;;;;6.03;5.53;;;14.20;99.90;;;;;;5015935;28;20185;-34
2022/08/23 05:07:58;;;;;;;6.87;5.87;;;14.20;99.90;;;;;;5015630;28;20214;-34
2022/08/23 05:10:24;;;;;;;6.67;5.63;;;14.20;99.90;;;;;;5032682;28;20220;-32
2022/08/23 05:12:52;;;;;;;7.57;5.73;;;14.30;99.90;;;;;;5032694;28;20182;-32
2022/08/23 05:15:19;;;;;;;6.03;5.43;;;14.30;99.90;;;;;;5015921;28;20182;-32
2022/08/23 05:17:50;;;;;;;6.63;5.60;;;14.40;99.90;;;;;;5016237;28;20189;-32
2022/08/23 05:20:16;;;;;;;7.97;5.43;;;14.40;99.90;;;;;;5032300;28;20201;-33
2022/08/23 05:22:44;;;;;;;6.50;5.80;;;14.50;99.90;;;;;;5032221;28;20274;-33
2022/08/23 05:25:48;;;;;;;7.10;5.93;;;14.50;99.90;;;;;;5031571;28;20189;-34
2022/08/23 05:28:11;;;;;;;7.30;6.00;;;14.60;99.90;;;;;;5031468;28;20205;-35
2022/08/23 05:30:36;;;;;;;8.43;5.27;;;14.70;99.90;;;;;;5032017;28;20198;-33
2022/08/23 05:33:03;;;;;;;6.87;5.27;;;14.90;99.90;;;;;;5015751;28;20238;-33
2022/08/23 05:35:30;;;;;;;6.60;6.00;;;14.90;99.90;;;;;;5032080;28;20214;-34
2022/08/23 05:37:58;;;;;;;6.00;5.40;;;15.00;99.90;;;;;;5031726;28;20283;-34
2022/08/23 05:40:25;;;;;;;8.83;6.60;;;15.00;99.90;;;;;;5031854;28;20222;-32
2022/08/23 05:43:01;;;;;;;9.13;5.80;;;15.00;99.90;;;;;;5016657;28;20182;-32
2022/08/23 05:45:27;;;;;;;6.80;5.87;;;15.00;99.90;;;;;;5015308;28;20594;-34
2022/08/23 05:47:52;;;;;;;6.50;5.90;;;15.10;99.90;;;;;;5031565;28;20218;-32
2022/08/23 05:50:39;;;;;;;6.23;5.63;;;15.20;99.90;;;;;;5031580;28;20207;-33
2022/08/23 05:53:06;;;;;;;6.93;6.13;;;15.30;99.90;;;;;;5015223;28;20179;-34
2022/08/23 05:55:32;;;;;;;7.20;5.47;;;15.50;99.90;;;;;;5015063;28;20189;-32
2022/08/23 05:58:15;;;;;;;6.10;5.40;;;15.60;99.90;;;;;;5017139;28;20179;-34
2022/08/23 06:00:42;;;;;;;8.20;6.20;;;15.70;99.90;;;;;;5031408;28;20211;-33
2022/08/23 06:03:08;;;;;;;9.80;6.20;;;15.80;99.90;;;;;;5031574;28;20183;-34
2022/08/23 06:05:39;;;;;;;9.53;6.50;;;16.00;99.90;;;;;;5031481;28;20187;-35
2022/08/23 06:08:05;;;;;;;6.70;6.03;;;16.10;99.90;;;;;;5014410;28;20206;-35
2022/08/23 06:10:31;;;;;;;7.00;6.23;;;16.20;99.90;;;;;;5031092;28;20190;-34
2022/08/23 06:13:04;;;;;;;7.90;6.67;;;16.30;99.90;;;;;;5015895;28;20273;-35
2022/08/23 06:15:31;;;;;;;7.60;6.80;;;16.40;99.90;;;;;;5015117;28;20389;-32
2022/08/23 06:17:58;;;;;;;8.47;6.80;;;16.50;99.90;;;;;;5014987;28;20201;-34
2022/08/23 06:20:24;;;;;;;8.07;6.60;;;16.60;99.90;;;;;;5014699;28;20199;-35
2022/08/23 06:22:58;;;;;;;7.30;6.60;;;16.70;99.90;;;;;;5015668;28;20190;-35
2022/08/23 06:25:24;;;;;;;6.80;6.20;;;16.80;99.90;;;;;;5031135;28;20182;-35
2022/08/23 06:28:05;;;;;;;8.10;6.50;;;17.00;99.90;;;;;;5016281;28;20365;-35
2022/08/23 06:30:31;;;;;;;7.67;6.30;;;17.10;99.90;;;;;;5014770;28;20199;-35
2022/08/23 06:33:00;;;;;;;7.53;6.73;;;17.20;99.90;;;;;;5030928;28;20186;-35
2022/08/23 06:35:44;;;;;;;9.50;6.93;;;17.30;99.90;;;;;;5031348;28;20178;-35
2022/08/23 06:38:17;;;;;;;9.63;7.30;;;17.50;99.90;;;;;;5014401;28;20267;-35
2022/08/23 06:41:04;;;;;;;8.50;7.13;;;17.60;99.90;;;;;;5031193;28;20297;-34
2022/08/23 06:43:41;;;;;;;7.60;6.70;;;17.70;99.90;;;;;;5015629;28;20245;-35
2022/08/23 06:46:31;;;;;;;8.98;6.90;;;17.80;99.90;;;;;;4994181;28;20196;-34
2022/08/23 06:48:59;;;;;;;8.60;7.13;;;17.80;99.90;;;;;;5030417;28;20190;-32
2022/08/23 06:51:29;;;;;;;8.03;6.27;;;17.90;99.90;;;;;;5014143;28;20228;-34
2022/08/23 06:54:05;;;;;;;8.20;6.50;;;17.90;99.90;;;;;;5014912;28;20193;-33
2022/08/23 06:56:51;;;;;;;7.75;6.35;;;18.00;99.90;;;;;;5030515;28;20192;-35
2022/08/23 06:59:24;;;;;;;7.63;6.60;;;18.10;99.90;;;;;;5030746;28;20187;-33
2022/08/23 07:02:13;;;;;;;8.02;7.10;;;18.20;99.90;;;;;;5030315;28;20209;-35
2022/08/23 07:04:57;;;;;;;7.10;6.20;;;18.30;99.90;;;;;;5031796;28;20194;-33
2022/08/23 07:07:36;;;;;;;9.25;6.90;;;18.40;99.90;;;;;;5015566;28;20272;-33
2022/08/23 07:10:04;;;;;;;6.47;5.85;;;18.50;99.90;;;;;;5013756;28;20208;-34
2022/08/23 07:12:30;;;;;;;7.95;6.60;;;18.70;99.90;;;;;;5029884;28;20182;-33
2022/08/23 07:14:56;;;;;;;7.97;6.57;;;18.80;99.90;;;;;;5013534;28;20185;-33
2022/08/23 07:17:22;;;;;;;10.60;6.22;;;18.80;99.90;;;;;;5029737;28;20179;-33
2022/08/23 07:19:49;;;;;;;8.10;6.20;;;18.90;99.90;;;;;;5013687;28;20183;-34
2022/08/23 07:22:15;;;;;;;7.20;6.50;;;19.00;99.90;;;;;;5013539;28;20210;-34
2022/08/23 07:24:41;;;;;;;7.63;6.50;;;19.10;99.90;;;;;;5013579;28;20294;-35
2022/08/23 07:27:08;;;;;;;7.03;6.43;;;19.20;99.90;;;;;;5013016;28;20218;-33
2022/08/23 07:29:44;;;;;;;7.65;5.55;;;19.20;99.90;;;;;;5014707;28;20224;-35
2022/08/23 07:32:09;;;;;;;6.90;6.30;;;19.30;99.90;;;;;;5013485;28;20288;-35
2022/08/23 07:34:36;;;;;;;5.70;5.20;;;19.40;99.90;;;;;;5029938;28;20244;-33
2022/08/23 07:37:03;;;;;;;6.50;5.90;;;19.50;99.90;;;;;;5013229;28;20182;-35
2022/08/23 07:39:30;;;;;;;6.70;5.72;;;19.50;99.90;;;;;;5029607;28;20201;-33
2022/08/23 07:41:59;;;;;;;6.57;5.97;;;19.70;99.90;;;;;;5013130;28;20198;-34
2022/08/23 07:44:25;;;;;;;5.95;5.45;;;19.80;99.90;;;;;;5029341;28;20179;-33
2022/08/23 07:46:51;;;;;;;6.57;5.55;;;19.80;99.90;;;;;;5013010;28;20175;-33
2022/08/23 07:49:18;;;;;;;7.85;5.18;;;19.90;99.90;;;;;;5013155;28;20178;-33
2022/08/23 07:51:48;;;;;;;7.30;5.65;;;20.10;99.90;;;;;;5013686;28;20198;-35
2022/08/23 07:54:15;;;;;;;5.65;5.15;;;20.20;99.90;;;;;;5029368;28;20179;-33
2022/08/23 07:56:52;;;;;;;7.03;5.35;;;20.30;99.90;;;;;;5014383;28;20180;-35
2022/08/23 07:59:28;;;;;;;7.13;5.10;;;20.30;99.90;;;;;;5014559;28;20185;-35
2022/08/23 08:02:06;;;;;;;6.00;4.20;;;20.50;99.90;;;;;;5029494;28;20198;-33
2022/08/23 08:04:34;;;;;;;4.95;4.45;;;20.60;99.90;;;;;;5012934;28;20182;-35
2022/08/23 08:07:00;;;;;;;5.50;4.90;;;20.80;99.90;;;;;;5012655;28;20202;-34
2022/08/23 08:09:28;;;;;;;5.45;4.70;;;21.00;99.90;;;;;;5013271;28;20207;-33
2022/08/23 08:11:55;;;;;;;6.30;4.20;;;21.20;99.90;;;;;;5013100;28;20198;-33
2022/08/23 08:14:25;;;;;;;6.55;4.88;;;21.40;99.90;;;;;;5013696;28;20732;-34
2022/08/23 08:16:57;;;;;;;6.07;4.40;;;21.60;99.90;;;;;;5012804;28;20240;-33
2022/08/23 08:19:54;;;;;;;5.07;4.40;;;21.60;99.90;;;;;;4976058;28;20171;-33
2022/08/23 08:22:42;;;;;;;4.72;4.03;;;21.80;99.90;;;;;;5072512;23;20253;-29
2022/08/23 08:25:27;;;;;;;5.10;3.63;;;22.00;99.90;;;;;;5028948;28;20194;-28
2022/08/23 08:27:54;;;;;;;5.45;4.55;;;22.20;99.90;;;;;;5012389;28;20671;-29
2022/08/23 08:30:20;;;;;;;5.28;4.10;;;22.30;99.90;;;;;;5029215;28;20178;-29
2022/08/23 08:32:47;;;;;;;6.22;4.00;;;22.50;99.90;;;;;;5025818;28;20195;-29
2022/08/23 08:35:13;;;;;;;3.90;3.50;;;22.70;99.90;;;;;;5025847;28;20190;-29
2022/08/23 08:37:39;;;;;;;6.70;4.35;;;22.80;99.90;;;;;;5009194;28;20195;-30
2022/08/23 08:40:06;;;;;;;4.22;3.63;;;22.90;99.90;;;;;;5025598;28;20183;-29
2022/08/23 08:42:49;;;;;;;4.93;3.70;;;23.10;99.90;;;;;;5025297;28;20233;-29
2022/08/23 08:45:24;;;;;;;4.93;3.35;;;23.40;99.90;;;;;;4993082;28;20186;-30
2022/08/23 08:48:05;;;;;;;3.92;3.28;;;23.50;99.90;;;;;;5025751;28;20290;-31
2022/08/23 08:50:46;;;;;;;7.40;3.38;;;23.80;99.90;;;;;;5025853;28;20233;-30
2022/08/23 08:53:18;;;;;;;3.65;3.30;;;24.00;99.90;;;;;;5025762;28;20187;-30
2022/08/23 08:56:21;;;;;;;3.40;3.10;;;24.20;99.90;;;;;;5008896;28;20175;-30
2022/08/23 08:58:58;;;;;;;2.97;2.70;;;24.40;99.90;;;;;;5024470;28;20197;-31
2022/08/23 09:01:25;;;;;;;2.95;2.70;;;24.60;99.90;;;;;;5028343;28;20207;-30
2022/08/23 09:03:52;;;;;;;3.13;2.80;;;24.80;99.90;;;;;;5029431;28;20194;-30
2022/08/23 09:06:24;;;;;;;5.30;2.88;;;24.90;99.90;;;;;;5029626;28;20187;-31
2022/08/23 09:09:10;;;;;;;3.20;2.90;;;25.10;99.90;;;;;;5029013;28;20211;-30
2022/08/23 09:11:36;;;;;;;3.53;2.92;;;25.20;99.90;;;;;;5029224;28;20344;-30
2022/08/23 09:14:30;;;;;;;5.47;2.88;;;25.20;99.90;;;;;;4996566;28;20204;-30
2022/08/23 09:17:15;;;;;;;3.45;2.58;;;25.30;99.90;;;;;;5018292;28;20191;-30
2022/08/23 09:19:42;;;;;;;3.40;2.63;;;25.40;99.90;;;;;;4996130;28;20567;-30
2022/08/23 09:22:13;;;;;;;3.00;2.40;;;25.50;99.90;;;;;;4992630;28;20211;-31
2022/08/23 09:24:40;;;;;;;3.55;2.50;;;25.70;99.90;;;;;;4993050;28;20180;-30
2022/08/23 09:27:13;;;;;;;4.13;2.75;;;25.70;99.90;;;;;;4977428;28;20211;-30
2022/08/23 09:29:52;;;;;;;3.65;2.47;;;26.00;99.90;;;;;;4992855;28;20187;-30
2022/08/23 09:32:28;;;;;;;4.15;2.20;;;26.10;99.90;;;;;;4992558;28;20206;-30
2022/08/23 09:35:10;;;;;;;3.70;2.10;;;26.30;99.90;;;;;;5009173;28;20207;-30
2022/08/23 09:37:53;;;;;;;2.58;2.35;;;26.40;99.90;;;;;;4992422;28;20191;-31
2022/08/23 09:40:34;;;;;;;3.03;2.42;;;26.50;99.00;;;;;;4976363;28;20180;-31
2022/08/23 09:43:06;;;;;;;4.40;2.33;;;26.60;98.90;;;;;;4992439;28;20238;-31
2022/08/23 09:45:38;;;;;;;3.40;2.50;;;26.80;99.20;;;;;;4976363;28;20183;-30
2022/08/23 09:48:11;;;;;;;2.35;2.15;;;26.90;98.30;;;;;;4992118;28;20215;-29
2022/08/23 09:50:56;;;;;;;3.67;2.15;;;27.00;97.10;;;;;;4992327;28;20279;-30
2022/08/23 09:53:28;;;;;;;4.63;1.92;;;27.10;97.10;;;;;;5008457;28;20180;-31
2022/08/23 09:55:57;;;;;;;4.35;1.90;;;27.20;96.60;;;;;;4992600;28;20172;-30
2022/08/23 09:58:37;;;;;;;4.75;2.15;;;27.10;93.40;;;;;;5008374;28;20195;-30
2022/08/23 10:01:27;;;;;;;2.58;1.88;;;27.20;95.00;;;;;;4991668;28;20200;-30
2022/08/23 10:04:21;;;;;;;4.43;2.17;;;27.40;94.70;;;;;;4992240;28;20215;-30
2022/08/23 10:06:48;;;;;;;3.47;2.08;;;27.50;94.00;;;;;;4975724;28;20247;-31
2022/08/23 10:09:22;;;;;;;5.15;3.63;;;27.70;94.80;;;;;;4992121;28;20180;-29
2022/08/23 10:11:49;;;;;;;2.78;2.22;;;27.80;93.80;;;;;;4991910;28;20237;-30
2022/08/23 10:14:19;;;;;;;2.83;1.60;;;27.80;93.80;;;;;;4992127;28;20184;-29
2022/08/23 10:17:04;;;;;;;2.10;1.88;;;27.90;92.50;;;;;;4991899;28;20187;-31
2022/08/23 10:19:30;;;;;;;5.28;1.90;;;28.00;92.70;;;;;;5008476;28;20187;-29
2022/08/23 10:22:13;;;;;;;2.80;1.80;;;28.10;90.50;;;;;;4993530;28;20214;-30
2022/08/23 10:24:51;;;;;;;3.55;1.95;;;28.20;91.10;;;;;;5027175;28;20266;-30
2022/08/23 10:30:47;;;;;;;4.40;2.03;;;28.30;89.80;;;;;;5011245;28;20265;-31
2022/08/23 10:33:22;;;;;;;5.13;1.83;;;28.20;87.70;;;;;;5011300;28;20176;-30
2022/08/23 10:35:59;;;;;;;2.80;1.98;;;28.10;90.00;;;;;;5027916;28;20175;-31
2022/08/23 10:39:02;;;;;;;3.92;1.80;;;28.10;88.90;;;;;;5010987;28;20186;-29
2022/08/23 10:41:28;;;;;;;1.88;1.73;;;28.20;89.90;;;;;;5002609;28;20300;-31
2022/08/23 10:44:02;;;;;;;3.13;1.80;;;28.40;89.30;;;;;;5011279;28;20179;-30
2022/08/23 10:46:33;;;;;;;3.25;1.70;;;28.40;88.10;;;;;;5010957;28;20186;-29
2022/08/23 10:49:02;;;;;;;3.30;1.70;;;28.60;88.40;;;;;;5026824;28;20219;-32
2022/08/23 10:51:32;;;;;;;2.10;1.90;;;28.70;88.60;;;;;;5010930;28;20199;-31
2022/08/23 10:54:11;;;;;;;2.10;1.73;;;28.90;87.50;;;;;;5027197;28;20182;-30
2022/08/23 10:56:38;;;;;;;2.17;1.65;;;28.80;85.20;;;;;;5010771;28;20186;-30
2022/08/23 10:59:16;;;;;;;2.10;1.90;;;28.80;84.20;;;;;;5010735;28;20184;-30
2022/08/23 11:01:58;;;;;;;2.78;1.98;;;28.70;82.30;;;;;;5026305;28;20760;-31
2022/08/23 11:05:02;;;;;;;2.40;1.80;;;28.70;84.40;;;;;;5026931;28;20184;-30
2022/08/23 11:07:36;;;;;;;3.22;1.80;;;28.80;85.40;;;;;;4994457;28;20206;-31
2022/08/23 11:10:12;;;;;;;1.95;1.60;;;29.10;86.00;;;;;;5010620;28;20171;-30
2022/08/23 11:12:53;;;;;;;3.53;2.03;;;29.40;84.40;;;;;;5010420;28;20199;-31
2022/08/23 11:15:29;;;;;;;2.42;2.00;;;29.50;85.60;;;;;;5027065;28;20233;-31
2022/08/23 11:17:59;;;;;;;2.83;1.80;;;29.50;82.60;;;;;;5026524;28;20183;-30
2022/08/23 11:20:48;;;;;;;3.30;2.00;;;29.60;84.10;;;;;;5010208;28;20210;-30
2022/08/23 11:23:42;;;;;;;3.30;1.75;;;29.90;84.50;;;;;;5026067;28;20194;-30
2022/08/23 11:26:20;;;;;;;3.22;1.90;;;29.90;82.40;;;;;;5026992;28;20676;-31
2022/08/23 11:28:49;;;;;;;2.20;1.75;;;29.90;83.60;;;;;;5009849;28;20198;-32
2022/08/23 11:31:22;;;;;;;2.88;1.70;;;30.10;84.50;;;;;;5010286;28;20199;-31
2022/08/23 11:34:05;;;;;;;2.00;1.60;;;30.30;82.70;;;;;;5026808;28;20183;-31
2022/08/23 11:36:35;;;;;;;3.30;1.85;;;30.40;82.30;;;;;;5026546;28;20191;-31
2022/08/23 11:39:11;;;;;;;2.90;2.10;;;30.50;80.90;;;;;;5009800;28;20203;-30
2022/08/23 11:41:55;;;;;;;2.80;1.80;;;30.60;80.80;;;;;;5026562;28;20225;-30
2022/08/23 11:44:39;;;;;;;2.58;1.65;;;30.50;81.10;;;;;;5010177;28;20198;-30
2022/08/23 11:47:10;;;;;;;1.98;1.65;;;30.70;80.90;;;;;;5025744;28;20222;-30
2022/08/23 11:49:40;;;;;;;2.58;1.73;;;30.70;79.50;;;;;;5026014;28;20270;-31
2022/08/23 11:52:26;;;;;;;3.28;1.95;;;30.80;80.30;;;;;;5026117;28;20231;-33
2022/08/23 11:55:13;;;;;;;2.00;1.70;;;30.90;78.40;;;;;;5026464;28;20182;-30
2022/08/23 11:58:07;;;;;;;2.13;1.92;;;30.90;79.30;;;;;;5026271;28;20183;-32
2022/08/23 12:01:06;;;;;;;2.67;1.83;;;30.90;79.10;;;;;;4993254;28;20191;-31
2022/08/23 12:03:55;;;;;;;2.08;1.88;;;31.20;78.00;;;;;;5026297;28;20178;-30
2022/08/23 12:06:21;;;;;;;1.98;1.60;;;31.10;78.10;;;;;;5025981;28;20175;-32
2022/08/23 12:08:54;;;;;;;2.97;1.42;;;31.30;77.20;;;;;;5009407;28;20218;-31
2022/08/23 12:11:23;;;;;;;1.83;1.60;;;31.10;75.40;;;;;;5011295;28;20664;-31
2022/08/23 12:13:54;;;;;;;2.53;1.67;;;31.20;75.30;;;;;;5026330;28;20207;-30
2022/08/23 12:16:20;;;;;;;1.70;1.58;;;31.30;74.80;;;;;;5009691;28;20182;-32
2022/08/23 12:18:49;;;;;;;4.15;1.95;;;31.30;74.90;;;;;;5009135;28;20179;-31
2022/08/23 12:21:40;;;;;;;2.00;1.50;;;31.40;76.80;;;;;;5025802;28;20207;-32
2022/08/23 12:24:31;;;;;;;3.45;1.88;;;31.40;76.40;;;;;;5026149;28;20183;-30
2022/08/23 12:26:59;;;;;;;3.63;1.88;;;31.50;74.90;;;;;;5025780;28;20195;-32
2022/08/23 12:29:58;;;;;;;2.83;1.80;;;31.60;75.30;;;;;;4993347;28;20180;-31
2022/08/23 12:32:34;;;;;;;2.58;1.70;;;31.80;74.80;;;;;;4996975;28;20207;-32
2022/08/23 12:35:07;;;;;;;2.92;2.00;;;31.60;74.50;;;;;;5011910;28;20178;-31
2022/08/23 12:37:58;;;;;;;3.38;1.90;;;31.70;73.20;;;;;;5029493;28;20187;-32
2022/08/23 12:40:33;;;;;;;2.70;1.60;;;31.90;72.00;;;;;;5013259;28;20294;-31
2022/08/23 12:43:19;;;;;;;2.22;1.73;;;32.00;72.10;;;;;;4997153;28;20200;-31
2022/08/23 12:45:48;;;;;;;3.03;1.70;;;31.80;71.30;;;;;;5029481;28;20246;-32
2022/08/23 12:48:19;;;;;;;2.45;1.75;;;31.80;71.70;;;;;;5029289;28;20211;-31
2022/08/23 12:50:55;;;;;;;2.15;1.73;;;31.70;73.50;;;;;;5029887;28;20175;-31
2022/08/23 12:53:28;;;;;;;4.00;1.80;;;31.90;72.40;;;;;;5013231;28;20166;-32
2022/08/23 12:56:02;;;;;;;2.42;1.88;;;31.90;72.90;;;;;;5029690;28;20187;-31
2022/08/23 12:58:31;;;;;;;1.88;1.73;;;32.20;72.20;;;;;;5029005;28;20246;-31
2022/08/23 13:01:03;;;;;;;3.05;1.67;;;32.40;72.30;;;;;;5029191;28;20234;-31
2022/08/23 13:03:40;;;;;;;2.40;1.80;;;32.50;72.50;;;;;;5029810;28;20195;-31
2022/08/23 13:06:11;;;;;;;4.45;1.90;;;32.40;71.30;;;;;;5029335;28;20175;-31
2022/08/23 13:08:58;;;;;;;2.33;1.77;;;32.20;71.80;;;;;;5028956;28;20210;-31
2022/08/23 13:11:28;;;;;;;1.90;1.58;;;32.30;72.20;;;;;;5012817;28;20249;-32
2022/08/23 13:13:54;;;;;;;3.10;1.80;;;32.40;71.20;;;;;;5029471;28;20210;-32
2022/08/23 13:16:42;;;;;;;2.28;1.90;;;32.30;68.90;;;;;;5012714;28;20175;-31
2022/08/23 13:19:29;;;;;;;1.85;1.70;;;32.40;69.80;;;;;;5028813;28;20190;-32
2022/08/23 13:22:17;;;;;;;1.90;1.70;;;32.70;72.30;;;;;;5028878;28;20211;-31
2022/08/23 13:24:59;;;;;;;6.15;2.47;;;33.00;71.50;;;;;;5012754;28;20183;-32
2022/08/23 13:27:30;;;;;;;2.72;1.88;;;32.80;71.90;;;;;;5028376;28;20199;-32